sensor_id;sensor_type;location;lat;lon;timestamp;P1;durP1;ratioP1;P2;durP2;ratioP2
36551;SDS011;22559;54.176;12.102;2024-03-02T00:00:18;59.93;;;29.53;;
36551;SDS011;22559;54.176;12.102;2024-03-02T00:02:46;66.87;;;29.83;;
36551;SDS011;22559;54.176;12.102;2024-03-02T00:05:22;66.93;;;30.70;;
36551;SDS011;22559;54.176;12.102;2024-03-02T00:07:52;60.47;;;29.57;;
36551;SDS011;22559;54.176;12.102;2024-03-02T00:10:26;62.63;;;29.20;;
36551;SDS011;22559;54.176;12.102;2024-03-02T00:13:12;62.93;;;30.10;;
36551;SDS011;22559;54.176;12.102;2024-03-02T00:15:47;72.43;;;31.23;;
36551;SDS011;22559;54.176;12.102;2024-03-02T00:18:21;70.67;;;31.60;;
36551;SDS011;22559;54.176;12.102;2024-03-02T00:20:51;71.20;;;30.90;;
36551;SDS011;22559;54.176;12.102;2024-03-02T00:23:24;59.63;;;29.57;;
36551;SDS011;22559;54.176;12.102;2024-03-02T00:25:55;62.13;;;29.90;;
36551;SDS011;22559;54.176;12.102;2024-03-02T00:28:21;65.10;;;30.10;;
36551;SDS011;22559;54.176;12.102;2024-03-02T00:33:22;67.50;;;29.93;;
36551;SDS011;22559;54.176;12.102;2024-03-02T00:35:48;65.90;;;31.37;;
36551;SDS011;22559;54.176;12.102;2024-03-02T00:38:14;65.90;;;30.23;;
36551;SDS011;22559;54.176;12.102;2024-03-02T00:40:41;71.60;;;31.07;;
36551;SDS011;22559;54.176;12.102;2024-03-02T00:43:35;71.23;;;31.00;;
36551;SDS011;22559;54.176;12.102;2024-03-02T00:46:17;60.10;;;29.30;;
36551;SDS011;22559;54.176;12.102;2024-03-02T00:49:00;67.53;;;32.43;;
36551;SDS011;22559;54.176;12.102;2024-03-02T00:51:27;64.83;;;29.73;;
36551;SDS011;22559;54.176;12.102;2024-03-02T00:53:55;74.50;;;32.10;;
36551;SDS011;22559;54.176;12.102;2024-03-02T00:56:23;69.47;;;31.03;;
36551;SDS011;22559;54.176;12.102;2024-03-02T00:58:50;67.70;;;32.43;;
36551;SDS011;22559;54.176;12.102;2024-03-02T01:01:17;71.30;;;32.23;;
36551;SDS011;22559;54.176;12.102;2024-03-02T01:03:44;78.10;;;34.37;;
36551;SDS011;22559;54.176;12.102;2024-03-02T01:06:10;75.30;;;32.43;;
36551;SDS011;22559;54.176;12.102;2024-03-02T01:08:36;75.67;;;34.03;;
36551;SDS011;22559;54.176;12.102;2024-03-02T01:11:03;72.70;;;33.60;;
36551;SDS011;22559;54.176;12.102;2024-03-02T01:13:30;67.10;;;31.00;;
36551;SDS011;22559;54.176;12.102;2024-03-02T01:15:56;71.60;;;32.73;;
36551;SDS011;22559;54.176;12.102;2024-03-02T01:18:21;77.20;;;33.30;;
36551;SDS011;22559;54.176;12.102;2024-03-02T01:20:47;81.27;;;33.83;;
36551;SDS011;22559;54.176;12.102;2024-03-02T01:23:16;70.57;;;31.70;;
36551;SDS011;22559;54.176;12.102;2024-03-02T01:25:42;75.20;;;32.17;;
36551;SDS011;22559;54.176;12.102;2024-03-02T01:28:08;71.87;;;32.70;;
36551;SDS011;22559;54.176;12.102;2024-03-02T01:30:33;72.30;;;33.10;;
36551;SDS011;22559;54.176;12.102;2024-03-02T01:33:00;70.43;;;33.07;;
36551;SDS011;22559;54.176;12.102;2024-03-02T01:35:27;72.07;;;31.57;;
36551;SDS011;22559;54.176;12.102;2024-03-02T01:37:52;73.53;;;32.57;;
36551;SDS011;22559;54.176;12.102;2024-03-02T01:40:18;81.40;;;32.93;;
36551;SDS011;22559;54.176;12.102;2024-03-02T01:42:45;78.37;;;34.67;;
36551;SDS011;22559;54.176;12.102;2024-03-02T01:45:11;76.07;;;32.93;;
36551;SDS011;22559;54.176;12.102;2024-03-02T01:47:37;76.73;;;32.87;;
36551;SDS011;22559;54.176;12.102;2024-03-02T01:50:02;81.17;;;36.00;;
36551;SDS011;22559;54.176;12.102;2024-03-02T01:52:28;75.17;;;33.03;;
36551;SDS011;22559;54.176;12.102;2024-03-02T01:54:54;69.53;;;32.93;;
36551;SDS011;22559;54.176;12.102;2024-03-02T01:57:20;69.20;;;31.47;;
36551;SDS011;22559;54.176;12.102;2024-03-02T01:59:46;76.37;;;33.93;;
36551;SDS011;22559;54.176;12.102;2024-03-02T02:02:15;78.07;;;32.50;;
36551;SDS011;22559;54.176;12.102;2024-03-02T02:04:41;70.73;;;32.70;;
36551;SDS011;22559;54.176;12.102;2024-03-02T02:07:07;72.80;;;33.37;;
36551;SDS011;22559;54.176;12.102;2024-03-02T02:09:33;73.37;;;34.30;;
36551;SDS011;22559;54.176;12.102;2024-03-02T02:11:59;69.87;;;33.77;;
36551;SDS011;22559;54.176;12.102;2024-03-02T02:14:24;66.30;;;32.57;;
36551;SDS011;22559;54.176;12.102;2024-03-02T02:16:50;76.30;;;35.43;;
36551;SDS011;22559;54.176;12.102;2024-03-02T02:19:17;76.13;;;33.47;;
36551;SDS011;22559;54.176;12.102;2024-03-02T02:21:43;77.10;;;35.13;;
36551;SDS011;22559;54.176;12.102;2024-03-02T02:24:08;76.43;;;33.87;;
36551;SDS011;22559;54.176;12.102;2024-03-02T02:26:34;78.00;;;34.27;;
36551;SDS011;22559;54.176;12.102;2024-03-02T02:29:00;73.40;;;33.33;;
36551;SDS011;22559;54.176;12.102;2024-03-02T02:31:25;75.77;;;33.27;;
36551;SDS011;22559;54.176;12.102;2024-03-02T02:33:51;77.30;;;33.97;;
36551;SDS011;22559;54.176;12.102;2024-03-02T02:36:17;73.17;;;33.30;;
36551;SDS011;22559;54.176;12.102;2024-03-02T02:38:44;73.03;;;33.77;;
36551;SDS011;22559;54.176;12.102;2024-03-02T02:41:11;73.70;;;33.57;;
36551;SDS011;22559;54.176;12.102;2024-03-02T02:43:37;60.77;;;31.70;;
36551;SDS011;22559;54.176;12.102;2024-03-02T02:46:04;72.67;;;33.97;;
36551;SDS011;22559;54.176;12.102;2024-03-02T02:48:30;71.37;;;32.63;;
36551;SDS011;22559;54.176;12.102;2024-03-02T02:50:56;74.93;;;32.90;;
36551;SDS011;22559;54.176;12.102;2024-03-02T02:53:21;71.37;;;32.77;;
36551;SDS011;22559;54.176;12.102;2024-03-02T02:55:47;75.60;;;32.50;;
36551;SDS011;22559;54.176;12.102;2024-03-02T02:58:13;78.93;;;33.53;;
36551;SDS011;22559;54.176;12.102;2024-03-02T03:00:39;72.63;;;33.43;;
36551;SDS011;22559;54.176;12.102;2024-03-02T03:03:05;73.90;;;31.70;;
36551;SDS011;22559;54.176;12.102;2024-03-02T03:05:31;76.17;;;32.83;;
36551;SDS011;22559;54.176;12.102;2024-03-02T03:07:57;71.50;;;32.77;;
36551;SDS011;22559;54.176;12.102;2024-03-02T03:10:22;72.03;;;33.03;;
36551;SDS011;22559;54.176;12.102;2024-03-02T03:12:50;70.30;;;33.13;;
36551;SDS011;22559;54.176;12.102;2024-03-02T03:15:16;72.73;;;33.70;;
36551;SDS011;22559;54.176;12.102;2024-03-02T03:17:42;76.47;;;35.03;;
36551;SDS011;22559;54.176;12.102;2024-03-02T03:20:08;83.47;;;36.77;;
36551;SDS011;22559;54.176;12.102;2024-03-02T03:22:37;80.70;;;35.13;;
36551;SDS011;22559;54.176;12.102;2024-03-02T03:25:04;76.80;;;33.67;;
36551;SDS011;22559;54.176;12.102;2024-03-02T03:27:30;77.37;;;34.90;;
36551;SDS011;22559;54.176;12.102;2024-03-02T03:29:56;71.37;;;35.57;;
36551;SDS011;22559;54.176;12.102;2024-03-02T03:32:21;87.23;;;34.00;;
36551;SDS011;22559;54.176;12.102;2024-03-02T03:34:47;75.07;;;34.43;;
36551;SDS011;22559;54.176;12.102;2024-03-02T03:37:13;86.43;;;35.27;;
36551;SDS011;22559;54.176;12.102;2024-03-02T03:39:39;78.23;;;35.47;;
36551;SDS011;22559;54.176;12.102;2024-03-02T03:42:05;80.37;;;34.33;;
36551;SDS011;22559;54.176;12.102;2024-03-02T03:44:31;71.23;;;34.77;;
36551;SDS011;22559;54.176;12.102;2024-03-02T03:46:57;78.37;;;34.50;;
36551;SDS011;22559;54.176;12.102;2024-03-02T03:49:22;85.23;;;34.30;;
36551;SDS011;22559;54.176;12.102;2024-03-02T03:51:48;76.17;;;34.90;;
36551;SDS011;22559;54.176;12.102;2024-03-02T03:54:14;73.17;;;34.27;;
36551;SDS011;22559;54.176;12.102;2024-03-02T03:56:40;78.23;;;35.77;;
36551;SDS011;22559;54.176;12.102;2024-03-02T03:59:05;84.60;;;35.67;;
36551;SDS011;22559;54.176;12.102;2024-03-02T04:01:31;75.93;;;35.80;;
36551;SDS011;22559;54.176;12.102;2024-03-02T04:03:57;77.83;;;35.10;;
36551;SDS011;22559;54.176;12.102;2024-03-02T04:06:23;76.13;;;34.70;;
36551;SDS011;22559;54.176;12.102;2024-03-02T04:08:49;72.37;;;32.50;;
36551;SDS011;22559;54.176;12.102;2024-03-02T04:11:14;68.43;;;32.87;;
36551;SDS011;22559;54.176;12.102;2024-03-02T04:13:40;81.73;;;36.63;;
36551;SDS011;22559;54.176;12.102;2024-03-02T04:16:06;72.80;;;34.43;;
36551;SDS011;22559;54.176;12.102;2024-03-02T04:18:31;66.57;;;34.53;;
36551;SDS011;22559;54.176;12.102;2024-03-02T04:20:57;81.17;;;35.50;;
36551;SDS011;22559;54.176;12.102;2024-03-02T04:23:24;76.20;;;35.90;;
36551;SDS011;22559;54.176;12.102;2024-03-02T04:25:51;71.67;;;33.43;;
36551;SDS011;22559;54.176;12.102;2024-03-02T04:28:16;73.60;;;35.50;;
36551;SDS011;22559;54.176;12.102;2024-03-02T04:30:42;77.73;;;35.90;;
36551;SDS011;22559;54.176;12.102;2024-03-02T04:33:07;72.13;;;33.37;;
36551;SDS011;22559;54.176;12.102;2024-03-02T04:35:35;73.97;;;35.80;;
36551;SDS011;22559;54.176;12.102;2024-03-02T04:38:04;72.90;;;34.33;;
36551;SDS011;22559;54.176;12.102;2024-03-02T04:40:29;79.33;;;36.40;;
36551;SDS011;22559;54.176;12.102;2024-03-02T04:42:55;79.67;;;36.30;;
36551;SDS011;22559;54.176;12.102;2024-03-02T04:45:21;74.40;;;35.00;;
36551;SDS011;22559;54.176;12.102;2024-03-02T04:47:46;76.87;;;35.73;;
36551;SDS011;22559;54.176;12.102;2024-03-02T04:50:12;78.00;;;35.03;;
36551;SDS011;22559;54.176;12.102;2024-03-02T04:52:38;81.53;;;36.13;;
36551;SDS011;22559;54.176;12.102;2024-03-02T04:55:04;67.40;;;33.60;;
36551;SDS011;22559;54.176;12.102;2024-03-02T04:57:36;68.40;;;32.60;;
36551;SDS011;22559;54.176;12.102;2024-03-02T05:00:01;75.53;;;36.03;;
36551;SDS011;22559;54.176;12.102;2024-03-02T05:02:31;76.33;;;35.17;;
36551;SDS011;22559;54.176;12.102;2024-03-02T05:04:57;74.60;;;35.57;;
36551;SDS011;22559;54.176;12.102;2024-03-02T05:07:23;72.60;;;35.70;;
36551;SDS011;22559;54.176;12.102;2024-03-02T05:09:48;75.63;;;35.17;;
36551;SDS011;22559;54.176;12.102;2024-03-02T05:12:14;74.43;;;34.90;;
36551;SDS011;22559;54.176;12.102;2024-03-02T05:14:58;70.87;;;34.27;;
36551;SDS011;22559;54.176;12.102;2024-03-02T05:17:24;70.23;;;34.77;;
36551;SDS011;22559;54.176;12.102;2024-03-02T05:19:49;70.57;;;33.00;;
36551;SDS011;22559;54.176;12.102;2024-03-02T05:22:15;74.40;;;33.77;;
36551;SDS011;22559;54.176;12.102;2024-03-02T05:24:41;71.50;;;33.73;;
36551;SDS011;22559;54.176;12.102;2024-03-02T05:27:07;77.47;;;34.10;;
36551;SDS011;22559;54.176;12.102;2024-03-02T05:29:32;69.80;;;33.87;;
36551;SDS011;22559;54.176;12.102;2024-03-02T05:31:58;77.23;;;34.67;;
36551;SDS011;22559;54.176;12.102;2024-03-02T05:34:24;70.93;;;33.20;;
36551;SDS011;22559;54.176;12.102;2024-03-02T05:36:49;72.13;;;33.87;;
36551;SDS011;22559;54.176;12.102;2024-03-02T05:39:15;69.47;;;32.03;;
36551;SDS011;22559;54.176;12.102;2024-03-02T05:41:40;71.13;;;33.80;;
36551;SDS011;22559;54.176;12.102;2024-03-02T05:44:06;69.70;;;32.67;;
36551;SDS011;22559;54.176;12.102;2024-03-02T05:46:32;73.53;;;34.43;;
36551;SDS011;22559;54.176;12.102;2024-03-02T05:48:59;72.30;;;34.97;;
36551;SDS011;22559;54.176;12.102;2024-03-02T05:51:25;71.10;;;33.77;;
36551;SDS011;22559;54.176;12.102;2024-03-02T05:53:50;68.40;;;33.07;;
36551;SDS011;22559;54.176;12.102;2024-03-02T05:56:16;72.23;;;34.27;;
36551;SDS011;22559;54.176;12.102;2024-03-02T05:58:42;69.30;;;32.37;;
36551;SDS011;22559;54.176;12.102;2024-03-02T06:01:30;82.13;;;33.87;;
36551;SDS011;22559;54.176;12.102;2024-03-02T06:03:56;69.57;;;32.90;;
36551;SDS011;22559;54.176;12.102;2024-03-02T06:06:23;70.30;;;33.43;;
36551;SDS011;22559;54.176;12.102;2024-03-02T06:08:50;69.40;;;33.53;;
36551;SDS011;22559;54.176;12.102;2024-03-02T06:11:16;67.67;;;32.17;;
36551;SDS011;22559;54.176;12.102;2024-03-02T06:13:42;69.40;;;33.43;;
36551;SDS011;22559;54.176;12.102;2024-03-02T06:16:07;65.70;;;31.57;;
36551;SDS011;22559;54.176;12.102;2024-03-02T06:18:33;68.70;;;31.53;;
36551;SDS011;22559;54.176;12.102;2024-03-02T06:20:59;66.80;;;30.50;;
36551;SDS011;22559;54.176;12.102;2024-03-02T06:23:26;65.07;;;31.40;;
36551;SDS011;22559;54.176;12.102;2024-03-02T06:25:52;65.17;;;32.13;;
36551;SDS011;22559;54.176;12.102;2024-03-02T06:28:17;66.07;;;30.23;;
36551;SDS011;22559;54.176;12.102;2024-03-02T06:30:43;74.17;;;31.67;;
36551;SDS011;22559;54.176;12.102;2024-03-02T06:33:10;66.90;;;32.33;;
36551;SDS011;22559;54.176;12.102;2024-03-02T06:35:36;64.87;;;30.57;;
36551;SDS011;22559;54.176;12.102;2024-03-02T06:38:01;63.37;;;30.77;;
36551;SDS011;22559;54.176;12.102;2024-03-02T06:40:27;61.73;;;30.27;;
36551;SDS011;22559;54.176;12.102;2024-03-02T06:42:53;70.93;;;31.43;;
36551;SDS011;22559;54.176;12.102;2024-03-02T06:45:18;64.63;;;30.23;;
36551;SDS011;22559;54.176;12.102;2024-03-02T06:47:44;66.17;;;30.87;;
36551;SDS011;22559;54.176;12.102;2024-03-02T06:50:10;71.43;;;30.63;;
36551;SDS011;22559;54.176;12.102;2024-03-02T06:52:36;67.27;;;29.77;;
36551;SDS011;22559;54.176;12.102;2024-03-02T06:55:02;63.00;;;30.20;;
36551;SDS011;22559;54.176;12.102;2024-03-02T06:57:29;65.03;;;31.37;;
36551;SDS011;22559;54.176;12.102;2024-03-02T06:59:55;60.07;;;32.07;;
36551;SDS011;22559;54.176;12.102;2024-03-02T07:02:23;69.23;;;30.67;;
36551;SDS011;22559;54.176;12.102;2024-03-02T07:04:51;62.87;;;30.87;;
36551;SDS011;22559;54.176;12.102;2024-03-02T07:07:18;68.40;;;30.77;;
36551;SDS011;22559;54.176;12.102;2024-03-02T07:09:43;63.23;;;31.17;;
36551;SDS011;22559;54.176;12.102;2024-03-02T07:12:09;66.80;;;31.00;;
36551;SDS011;22559;54.176;12.102;2024-03-02T07:14:35;64.93;;;29.73;;
36551;SDS011;22559;54.176;12.102;2024-03-02T07:17:19;62.37;;;28.90;;
36551;SDS011;22559;54.176;12.102;2024-03-02T07:19:45;57.13;;;29.63;;
36551;SDS011;22559;54.176;12.102;2024-03-02T07:22:11;56.80;;;28.40;;
36551;SDS011;22559;54.176;12.102;2024-03-02T07:24:43;65.07;;;31.03;;
36551;SDS011;22559;54.176;12.102;2024-03-02T07:27:09;60.03;;;29.03;;
36551;SDS011;22559;54.176;12.102;2024-03-02T07:29:35;59.07;;;29.50;;
36551;SDS011;22559;54.176;12.102;2024-03-02T07:32:01;60.97;;;28.30;;
36551;SDS011;22559;54.176;12.102;2024-03-02T07:34:27;60.03;;;29.97;;
36551;SDS011;22559;54.176;12.102;2024-03-02T07:36:52;57.23;;;27.83;;
36551;SDS011;22559;54.176;12.102;2024-03-02T07:39:18;60.57;;;27.53;;
36551;SDS011;22559;54.176;12.102;2024-03-02T07:41:45;64.17;;;28.80;;
36551;SDS011;22559;54.176;12.102;2024-03-02T07:44:11;60.43;;;27.40;;
36551;SDS011;22559;54.176;12.102;2024-03-02T07:46:39;63.43;;;29.23;;
36551;SDS011;22559;54.176;12.102;2024-03-02T07:49:08;63.63;;;28.40;;
36551;SDS011;22559;54.176;12.102;2024-03-02T07:51:34;58.37;;;28.23;;
36551;SDS011;22559;54.176;12.102;2024-03-02T07:54:00;63.27;;;30.60;;
36551;SDS011;22559;54.176;12.102;2024-03-02T07:56:26;57.00;;;26.80;;
36551;SDS011;22559;54.176;12.102;2024-03-02T07:58:51;57.27;;;27.70;;
36551;SDS011;22559;54.176;12.102;2024-03-02T08:01:18;55.10;;;28.13;;
36551;SDS011;22559;54.176;12.102;2024-03-02T08:03:43;59.90;;;28.23;;
36551;SDS011;22559;54.176;12.102;2024-03-02T08:06:13;62.63;;;29.77;;
36551;SDS011;22559;54.176;12.102;2024-03-02T08:08:40;53.50;;;25.83;;
36551;SDS011;22559;54.176;12.102;2024-03-02T08:11:06;63.13;;;28.47;;
36551;SDS011;22559;54.176;12.102;2024-03-02T08:13:31;69.23;;;30.60;;
36551;SDS011;22559;54.176;12.102;2024-03-02T08:15:57;62.07;;;28.80;;
36551;SDS011;22559;54.176;12.102;2024-03-02T08:18:23;60.87;;;30.67;;
36551;SDS011;22559;54.176;12.102;2024-03-02T08:20:49;71.00;;;31.03;;
36551;SDS011;22559;54.176;12.102;2024-03-02T08:23:14;75.13;;;33.77;;
36551;SDS011;22559;54.176;12.102;2024-03-02T08:25:40;70.53;;;32.63;;
36551;SDS011;22559;54.176;12.102;2024-03-02T08:28:06;75.50;;;31.83;;
36551;SDS011;22559;54.176;12.102;2024-03-02T08:30:32;62.87;;;30.70;;
36551;SDS011;22559;54.176;12.102;2024-03-02T08:32:57;67.80;;;33.13;;
36551;SDS011;22559;54.176;12.102;2024-03-02T08:35:23;59.47;;;30.90;;
36551;SDS011;22559;54.176;12.102;2024-03-02T08:37:49;61.10;;;29.70;;
36551;SDS011;22559;54.176;12.102;2024-03-02T08:40:14;58.43;;;30.40;;
36551;SDS011;22559;54.176;12.102;2024-03-02T08:42:40;58.23;;;30.07;;
36551;SDS011;22559;54.176;12.102;2024-03-02T08:45:06;64.97;;;30.67;;
36551;SDS011;22559;54.176;12.102;2024-03-02T08:47:32;65.73;;;30.47;;
36551;SDS011;22559;54.176;12.102;2024-03-02T08:49:59;72.93;;;31.57;;
36551;SDS011;22559;54.176;12.102;2024-03-02T08:52:25;63.37;;;31.10;;
36551;SDS011;22559;54.176;12.102;2024-03-02T08:54:51;71.17;;;33.00;;
36551;SDS011;22559;54.176;12.102;2024-03-02T08:57:17;69.17;;;31.70;;
36551;SDS011;22559;54.176;12.102;2024-03-02T08:59:43;64.73;;;30.30;;
36551;SDS011;22559;54.176;12.102;2024-03-02T09:02:09;69.00;;;31.83;;
36551;SDS011;22559;54.176;12.102;2024-03-02T09:04:35;68.33;;;33.10;;
36551;SDS011;22559;54.176;12.102;2024-03-02T09:07:01;69.87;;;32.83;;
36551;SDS011;22559;54.176;12.102;2024-03-02T09:09:27;68.10;;;33.27;;
36551;SDS011;22559;54.176;12.102;2024-03-02T09:11:53;69.73;;;33.80;;
36551;SDS011;22559;54.176;12.102;2024-03-02T09:14:22;67.13;;;31.17;;
36551;SDS011;22559;54.176;12.102;2024-03-02T09:16:48;72.57;;;33.07;;
36551;SDS011;22559;54.176;12.102;2024-03-02T09:19:14;71.17;;;32.90;;
36551;SDS011;22559;54.176;12.102;2024-03-02T09:21:39;70.43;;;32.53;;
36551;SDS011;22559;54.176;12.102;2024-03-02T09:24:07;64.33;;;31.00;;
36551;SDS011;22559;54.176;12.102;2024-03-02T09:26:33;65.27;;;29.97;;
36551;SDS011;22559;54.176;12.102;2024-03-02T09:28:58;61.90;;;30.77;;
36551;SDS011;22559;54.176;12.102;2024-03-02T09:31:24;63.03;;;29.77;;
36551;SDS011;22559;54.176;12.102;2024-03-02T09:33:49;63.87;;;31.63;;
36551;SDS011;22559;54.176;12.102;2024-03-02T09:36:18;59.43;;;29.87;;
36551;SDS011;22559;54.176;12.102;2024-03-02T09:38:45;57.30;;;29.20;;
36551;SDS011;22559;54.176;12.102;2024-03-02T09:41:11;59.33;;;29.73;;
36551;SDS011;22559;54.176;12.102;2024-03-02T09:43:37;51.90;;;27.70;;
36551;SDS011;22559;54.176;12.102;2024-03-02T09:46:03;59.23;;;30.10;;
36551;SDS011;22559;54.176;12.102;2024-03-02T09:48:29;55.90;;;29.93;;
36551;SDS011;22559;54.176;12.102;2024-03-02T09:50:54;56.23;;;28.77;;
36551;SDS011;22559;54.176;12.102;2024-03-02T09:53:21;63.60;;;31.43;;
36551;SDS011;22559;54.176;12.102;2024-03-02T09:55:48;61.13;;;30.97;;
36551;SDS011;22559;54.176;12.102;2024-03-02T09:58:13;60.50;;;29.97;;
36551;SDS011;22559;54.176;12.102;2024-03-02T10:00:39;70.37;;;30.80;;
36551;SDS011;22559;54.176;12.102;2024-03-02T10:03:05;62.83;;;30.43;;
36551;SDS011;22559;54.176;12.102;2024-03-02T10:05:36;63.30;;;31.40;;
36551;SDS011;22559;54.176;12.102;2024-03-02T10:08:02;67.43;;;31.17;;
36551;SDS011;22559;54.176;12.102;2024-03-02T10:10:35;67.83;;;30.93;;
36551;SDS011;22559;54.176;12.102;2024-03-02T10:13:11;65.73;;;31.27;;
36551;SDS011;22559;54.176;12.102;2024-03-02T10:15:38;72.20;;;31.10;;
36551;SDS011;22559;54.176;12.102;2024-03-02T10:18:10;68.20;;;31.27;;
36551;SDS011;22559;54.176;12.102;2024-03-02T10:20:36;65.73;;;30.23;;
36551;SDS011;22559;54.176;12.102;2024-03-02T10:23:09;63.30;;;30.77;;
36551;SDS011;22559;54.176;12.102;2024-03-02T10:25:36;70.93;;;31.50;;
36551;SDS011;22559;54.176;12.102;2024-03-02T10:28:02;59.93;;;31.07;;
36551;SDS011;22559;54.176;12.102;2024-03-02T10:30:30;66.67;;;31.23;;
36551;SDS011;22559;54.176;12.102;2024-03-02T10:32:56;63.37;;;31.53;;
36551;SDS011;22559;54.176;12.102;2024-03-02T10:35:22;58.03;;;30.07;;
36551;SDS011;22559;54.176;12.102;2024-03-02T10:37:49;63.43;;;31.70;;
36551;SDS011;22559;54.176;12.102;2024-03-02T10:40:15;65.17;;;31.03;;
36551;SDS011;22559;54.176;12.102;2024-03-02T10:42:41;65.10;;;31.60;;
36551;SDS011;22559;54.176;12.102;2024-03-02T10:45:07;65.87;;;31.77;;
36551;SDS011;22559;54.176;12.102;2024-03-02T10:47:36;65.73;;;32.60;;
36551;SDS011;22559;54.176;12.102;2024-03-02T10:50:04;67.47;;;34.10;;
36551;SDS011;22559;54.176;12.102;2024-03-02T10:52:36;67.77;;;34.17;;
36551;SDS011;22559;54.176;12.102;2024-03-02T10:55:05;64.80;;;32.93;;
36551;SDS011;22559;54.176;12.102;2024-03-02T10:57:41;73.70;;;32.73;;
36551;SDS011;22559;54.176;12.102;2024-03-02T11:00:15;66.73;;;32.47;;
36551;SDS011;22559;54.176;12.102;2024-03-02T11:02:50;71.67;;;32.80;;
36551;SDS011;22559;54.176;12.102;2024-03-02T11:05:18;70.27;;;31.83;;
36551;SDS011;22559;54.176;12.102;2024-03-02T11:08:18;64.13;;;31.70;;
36551;SDS011;22559;54.176;12.102;2024-03-02T11:13:13;70.00;;;31.20;;
36551;SDS011;22559;54.176;12.102;2024-03-02T11:15:45;63.53;;;32.40;;
36551;SDS011;22559;54.176;12.102;2024-03-02T11:18:11;71.43;;;32.90;;
36551;SDS011;22559;54.176;12.102;2024-03-02T11:20:38;69.07;;;32.10;;
36551;SDS011;22559;54.176;12.102;2024-03-02T11:23:05;69.43;;;32.73;;
36551;SDS011;22559;54.176;12.102;2024-03-02T11:25:34;57.60;;;31.30;;
36551;SDS011;22559;54.176;12.102;2024-03-02T11:28:04;65.17;;;32.40;;
36551;SDS011;22559;54.176;12.102;2024-03-02T11:32:57;63.37;;;33.00;;
36551;SDS011;22559;54.176;12.102;2024-03-02T11:35:32;58.00;;;29.87;;
36551;SDS011;22559;54.176;12.102;2024-03-02T11:37:58;60.33;;;32.33;;
36551;SDS011;22559;54.176;12.102;2024-03-02T11:40:25;57.43;;;31.37;;
36551;SDS011;22559;54.176;12.102;2024-03-02T11:42:52;58.27;;;32.00;;
36551;SDS011;22559;54.176;12.102;2024-03-02T11:45:27;58.73;;;30.13;;
36551;SDS011;22559;54.176;12.102;2024-03-02T11:47:59;62.10;;;30.87;;
36551;SDS011;22559;54.176;12.102;2024-03-02T11:50:35;64.20;;;30.93;;
36551;SDS011;22559;54.176;12.102;2024-03-02T11:53:05;56.43;;;30.27;;
36551;SDS011;22559;54.176;12.102;2024-03-02T11:55:37;56.37;;;30.63;;
36551;SDS011;22559;54.176;12.102;2024-03-02T11:58:04;55.07;;;30.33;;
36551;SDS011;22559;54.176;12.102;2024-03-02T12:00:30;56.27;;;29.93;;
36551;SDS011;22559;54.176;12.102;2024-03-02T12:05:29;56.53;;;30.87;;
36551;SDS011;22559;54.176;12.102;2024-03-02T12:07:59;59.33;;;31.90;;
36551;SDS011;22559;54.176;12.102;2024-03-02T12:10:29;59.77;;;29.50;;
36551;SDS011;22559;54.176;12.102;2024-03-02T12:12:56;51.37;;;28.33;;
36551;SDS011;22559;54.176;12.102;2024-03-02T12:15:24;45.53;;;27.57;;
36551;SDS011;22559;54.176;12.102;2024-03-02T12:18:08;49.53;;;26.63;;
36551;SDS011;22559;54.176;12.102;2024-03-02T12:20:33;50.43;;;28.20;;
36551;SDS011;22559;54.176;12.102;2024-03-02T12:23:00;47.40;;;26.30;;
36551;SDS011;22559;54.176;12.102;2024-03-02T12:25:27;46.07;;;26.10;;
36551;SDS011;22559;54.176;12.102;2024-03-02T12:27:55;44.77;;;25.10;;
36551;SDS011;22559;54.176;12.102;2024-03-02T12:30:21;45.80;;;25.27;;
36551;SDS011;22559;54.176;12.102;2024-03-02T12:32:48;47.47;;;25.63;;
36551;SDS011;22559;54.176;12.102;2024-03-02T12:35:14;43.10;;;25.03;;
36551;SDS011;22559;54.176;12.102;2024-03-02T12:37:50;44.10;;;24.73;;
36551;SDS011;22559;54.176;12.102;2024-03-02T12:40:17;44.10;;;24.23;;
36551;SDS011;22559;54.176;12.102;2024-03-02T12:42:47;42.37;;;23.93;;
36551;SDS011;22559;54.176;12.102;2024-03-02T12:45:13;44.47;;;23.80;;
36551;SDS011;22559;54.176;12.102;2024-03-02T12:47:40;40.07;;;23.23;;
36551;SDS011;22559;54.176;12.102;2024-03-02T12:50:07;46.57;;;24.27;;
36551;SDS011;22559;54.176;12.102;2024-03-02T12:52:33;41.53;;;23.33;;
36551;SDS011;22559;54.176;12.102;2024-03-02T12:54:59;42.60;;;23.77;;
36551;SDS011;22559;54.176;12.102;2024-03-02T12:57:28;44.07;;;22.53;;
36551;SDS011;22559;54.176;12.102;2024-03-02T13:00:00;35.70;;;21.90;;
36551;SDS011;22559;54.176;12.102;2024-03-02T13:02:34;39.03;;;21.50;;
36551;SDS011;22559;54.176;12.102;2024-03-02T13:05:05;36.10;;;21.40;;
36551;SDS011;22559;54.176;12.102;2024-03-02T13:07:36;33.70;;;21.13;;
36551;SDS011;22559;54.176;12.102;2024-03-02T13:10:02;37.27;;;20.93;;
36551;SDS011;22559;54.176;12.102;2024-03-02T13:12:28;37.87;;;21.13;;
36551;SDS011;22559;54.176;12.102;2024-03-02T13:14:55;32.13;;;20.50;;
36551;SDS011;22559;54.176;12.102;2024-03-02T13:17:23;35.37;;;21.00;;
36551;SDS011;22559;54.176;12.102;2024-03-02T13:19:52;37.00;;;20.30;;
36551;SDS011;22559;54.176;12.102;2024-03-02T13:22:18;32.33;;;20.50;;
36551;SDS011;22559;54.176;12.102;2024-03-02T13:24:45;35.07;;;20.70;;
36551;SDS011;22559;54.176;12.102;2024-03-02T13:27:10;34.47;;;20.53;;
36551;SDS011;22559;54.176;12.102;2024-03-02T13:29:36;29.83;;;19.57;;
36551;SDS011;22559;54.176;12.102;2024-03-02T13:32:02;34.50;;;20.83;;
36551;SDS011;22559;54.176;12.102;2024-03-02T13:34:28;35.17;;;19.70;;
36551;SDS011;22559;54.176;12.102;2024-03-02T13:36:54;28.83;;;18.33;;
36551;SDS011;22559;54.176;12.102;2024-03-02T13:39:20;28.93;;;18.23;;
36551;SDS011;22559;54.176;12.102;2024-03-02T13:41:45;32.17;;;19.17;;
36551;SDS011;22559;54.176;12.102;2024-03-02T13:44:17;30.70;;;17.57;;
36551;SDS011;22559;54.176;12.102;2024-03-02T13:46:44;29.33;;;18.67;;
36551;SDS011;22559;54.176;12.102;2024-03-02T13:49:10;27.93;;;16.77;;
36551;SDS011;22559;54.176;12.102;2024-03-02T13:51:37;28.63;;;15.93;;
36551;SDS011;22559;54.176;12.102;2024-03-02T13:54:02;29.30;;;18.70;;
36551;SDS011;22559;54.176;12.102;2024-03-02T13:56:29;29.70;;;18.47;;
36551;SDS011;22559;54.176;12.102;2024-03-02T13:58:54;29.75;;;17.95;;
36551;SDS011;22559;54.176;12.102;2024-03-02T14:01:20;25.63;;;16.57;;
36551;SDS011;22559;54.176;12.102;2024-03-02T14:03:46;24.75;;;16.02;;
36551;SDS011;22559;54.176;12.102;2024-03-02T14:06:12;23.73;;;15.23;;
36551;SDS011;22559;54.176;12.102;2024-03-02T14:08:38;28.20;;;17.42;;
36551;SDS011;22559;54.176;12.102;2024-03-02T14:11:04;26.17;;;16.05;;
36551;SDS011;22559;54.176;12.102;2024-03-02T14:13:29;24.63;;;15.48;;
36551;SDS011;22559;54.176;12.102;2024-03-02T14:15:55;21.95;;;14.88;;
36551;SDS011;22559;54.176;12.102;2024-03-02T14:18:21;24.92;;;18.05;;